createdAt,value
2022-09-01T00:00:34.794Z,16.90
2022-09-01T00:03:01.557Z,16.90
2022-09-01T00:05:28.607Z,17.00
2022-09-01T00:07:55.368Z,17.00
2022-09-01T00:10:22.252Z,17.00
2022-09-01T00:12:48.979Z,17.00
2022-09-01T00:15:16.192Z,17.00
2022-09-01T00:17:42.941Z,16.90
2022-09-01T00:20:10.063Z,16.90
2022-09-01T00:22:36.822Z,17.00
2022-09-01T00:25:03.621Z,17.00
2022-09-01T00:27:30.820Z,17.00
2022-09-01T00:29:58.032Z,17.00
2022-09-01T00:32:25.458Z,17.00
2022-09-01T00:34:52.163Z,17.00
2022-09-01T00:37:18.884Z,17.00
2022-09-01T00:39:45.589Z,17.00
2022-09-01T00:42:12.577Z,17.00
2022-09-01T00:44:39.425Z,17.00
2022-09-01T00:47:07.039Z,17.00
2022-09-01T00:49:35.095Z,17.00
2022-09-01T00:52:02.218Z,17.00
2022-09-01T00:54:29.460Z,17.00
2022-09-01T00:56:57.498Z,17.00
2022-09-01T00:59:24.846Z,17.00
2022-09-01T01:01:51.650Z,17.10
2022-09-01T01:04:18.516Z,17.10
2022-09-01T01:06:49.712Z,17.10
2022-09-01T01:09:16.427Z,17.10
2022-09-01T01:11:46.519Z,17.10
2022-09-01T01:14:13.263Z,17.10
2022-09-01T01:16:44.246Z,17.10
2022-09-01T01:19:30.921Z,17.00
2022-09-01T01:22:21.281Z,17.00
2022-09-01T01:24:48.503Z,17.00
2022-09-01T01:27:17.980Z,17.00
2022-09-01T01:29:44.955Z,17.00
2022-09-01T01:32:13.345Z,17.10
2022-09-01T01:34:43.672Z,17.10
2022-09-01T01:37:11.011Z,17.10
2022-09-01T01:39:42.857Z,17.10
2022-09-01T01:42:09.577Z,17.00
2022-09-01T01:44:38.356Z,17.00
2022-09-01T01:47:08.373Z,17.00
2022-09-01T01:49:35.078Z,17.00
2022-09-01T01:52:01.837Z,17.00
2022-09-01T01:54:32.551Z,17.00
2022-09-01T01:56:59.595Z,17.00
2022-09-01T01:59:26.637Z,17.00
2022-09-01T02:01:53.453Z,17.00
2022-09-01T02:04:20.309Z,17.00
2022-09-01T02:06:47.844Z,17.00
2022-09-01T02:09:16.044Z,17.00
2022-09-01T02:11:45.627Z,16.90
2022-09-01T02:14:13.707Z,17.00
2022-09-01T02:16:41.257Z,17.00
2022-09-01T02:19:08.936Z,17.00
2022-09-01T02:21:35.856Z,17.00
2022-09-01T02:24:02.618Z,17.00
2022-09-01T02:26:32.211Z,17.00
2022-09-01T02:29:01.902Z,16.90
2022-09-01T02:31:29.061Z,16.90
2022-09-01T02:34:01.181Z,16.90
2022-09-01T02:36:28.139Z,17.00
2022-09-01T02:38:56.799Z,16.90
2022-09-01T02:41:29.402Z,16.90
2022-09-01T02:43:57.715Z,16.90
2022-09-01T02:46:24.935Z,16.90
2022-09-01T02:48:53.256Z,16.90
2022-09-01T02:51:20.508Z,16.90
2022-09-01T02:53:53.188Z,16.90
2022-09-01T02:56:20.255Z,16.90
2022-09-01T02:58:51.996Z,16.90
2022-09-01T03:01:24.809Z,16.80
2022-09-01T03:03:52.144Z,16.80
2022-09-01T03:06:19.870Z,16.70
2022-09-01T03:08:46.785Z,16.70
2022-09-01T03:11:13.640Z,16.70
2022-09-01T03:13:40.536Z,16.70
2022-09-01T03:16:07.533Z,16.70
2022-09-01T03:18:34.912Z,16.70
2022-09-01T03:21:02.482Z,16.60
2022-09-01T03:23:29.504Z,16.60
2022-09-01T03:25:56.768Z,16.60
2022-09-01T03:28:23.520Z,16.60
2022-09-01T03:30:50.727Z,16.60
2022-09-01T03:33:17.487Z,16.60
2022-09-01T03:35:44.287Z,16.60
2022-09-01T03:38:12.827Z,16.60
2022-09-01T03:40:39.763Z,16.60
2022-09-01T03:43:06.500Z,16.60
2022-09-01T03:45:38.532Z,16.50
2022-09-01T03:48:09.133Z,16.50
2022-09-01T03:50:36.624Z,16.50
2022-09-01T03:53:03.383Z,16.50
2022-09-01T03:55:31.117Z,16.50
2022-09-01T03:57:57.870Z,16.50
2022-09-01T04:00:24.617Z,16.50
2022-09-01T04:02:56.041Z,16.50
2022-09-01T04:05:28.815Z,16.40
2022-09-01T04:07:56.884Z,16.50
2022-09-01T04:10:23.604Z,16.40
2022-09-01T04:12:50.388Z,16.40
2022-09-01T04:15:20.184Z,16.40
2022-09-01T04:18:05.873Z,16.40
2022-09-01T04:20:39.936Z,16.50
2022-09-01T04:23:11.024Z,16.50
2022-09-01T04:25:39.150Z,16.50
2022-09-01T04:28:13.148Z,16.50
2022-09-01T04:30:43.227Z,16.50
2022-09-01T04:33:18.580Z,16.50
2022-09-01T04:35:45.654Z,16.50
2022-09-01T04:38:15.600Z,16.50
2022-09-01T04:40:44.163Z,16.50
2022-09-01T04:43:11.832Z,16.50
2022-09-01T04:45:39.066Z,16.50
2022-09-01T04:48:07.267Z,16.50
2022-09-01T04:50:34.943Z,16.50
2022-09-01T04:53:20.436Z,16.50
2022-09-01T04:55:49.731Z,16.50
2022-09-01T04:58:19.539Z,16.50
2022-09-01T05:00:48.268Z,16.50
2022-09-01T05:03:21.502Z,16.50
2022-09-01T05:05:54.782Z,16.50
2022-09-01T05:08:24.533Z,16.50
2022-09-01T05:10:56.804Z,16.50
2022-09-01T05:13:50.158Z,16.50
2022-09-01T05:16:19.423Z,16.50
2022-09-01T05:18:49.416Z,16.40
2022-09-01T05:21:17.609Z,16.50
2022-09-01T05:23:44.384Z,16.50
2022-09-01T05:26:14.730Z,16.50
2022-09-01T05:28:41.768Z,16.50
2022-09-01T05:31:08.534Z,16.60
2022-09-01T05:33:37.155Z,16.60
2022-09-01T05:36:08.462Z,16.60
2022-09-01T05:38:35.282Z,16.70
2022-09-01T05:41:07.105Z,16.70
2022-09-01T05:43:33.951Z,16.70
2022-09-01T05:46:07.288Z,16.70
2022-09-01T05:48:39.956Z,16.70
2022-09-01T05:51:22.287Z,16.70
2022-09-01T05:53:58.926Z,16.80
2022-09-01T05:56:28.356Z,16.80
2022-09-01T06:01:44.767Z,16.80
2022-09-01T06:04:16.130Z,16.80
2022-09-01T06:07:06.446Z,16.80
2022-09-01T06:09:35.018Z,16.90
2022-09-01T06:12:01.986Z,17.00
2022-09-01T06:14:29.014Z,17.00
2022-09-01T06:16:56.410Z,17.00
2022-09-01T06:19:23.404Z,17.00
2022-09-01T06:21:51.351Z,17.00
2022-09-01T06:24:18.176Z,17.00
2022-09-01T06:26:46.350Z,17.10
2022-09-01T06:29:15.610Z,17.10
2022-09-01T06:31:51.992Z,17.10
2022-09-01T06:34:20.037Z,17.10
2022-09-01T06:36:47.879Z,17.20
2022-09-01T06:39:20.137Z,17.20
2022-09-01T06:41:53.211Z,17.20
2022-09-01T06:44:24.683Z,17.30
2022-09-01T06:47:02.784Z,17.40
2022-09-01T06:49:33.284Z,17.40
2022-09-01T06:52:00.761Z,17.50
2022-09-01T06:54:29.907Z,17.60
2022-09-01T06:56:57.709Z,17.60
2022-09-01T06:59:30.140Z,17.60
2022-09-01T07:02:04.853Z,17.70
2022-09-01T07:04:51.930Z,17.80
2022-09-01T07:10:24.916Z,17.80
2022-09-01T07:13:18.912Z,17.80
2022-09-01T07:18:41.840Z,17.80
2022-09-01T07:21:38.852Z,17.90
2022-09-01T07:24:11.176Z,17.90
2022-09-01T07:26:47.703Z,18.00
2022-09-01T07:29:15.122Z,18.10
2022-09-01T07:31:52.006Z,18.10
2022-09-01T07:34:39.056Z,18.10
2022-09-01T07:45:58.057Z,18.40
2022-09-01T07:48:36.719Z,18.50
2022-09-01T07:51:35.927Z,18.50
2022-09-01T07:54:03.778Z,18.50
2022-09-01T07:56:30.684Z,18.60
2022-09-01T07:58:58.603Z,18.60
2022-09-01T08:01:25.653Z,18.80
2022-09-01T08:03:52.853Z,18.80
2022-09-01T08:06:20.817Z,18.90
2022-09-01T08:08:48.728Z,19.00
2022-09-01T08:11:15.731Z,19.10
2022-09-01T08:13:42.609Z,19.20
2022-09-01T08:16:16.986Z,19.30
2022-09-01T08:18:48.574Z,19.40
2022-09-01T08:21:28.870Z,19.40
2022-09-01T08:23:59.404Z,19.40
2022-09-01T08:26:26.243Z,19.40
2022-09-01T08:28:55.473Z,19.30
2022-09-01T08:31:32.577Z,19.30
2022-09-01T08:34:00.485Z,19.30
2022-09-01T08:36:28.374Z,19.30
2022-09-01T08:38:55.159Z,19.30
2022-09-01T08:41:28.527Z,19.40
2022-09-01T08:43:56.172Z,19.40
2022-09-01T08:46:24.167Z,19.40
2022-09-01T08:51:59.060Z,19.40
2022-09-01T08:54:29.398Z,19.40
2022-09-01T08:56:59.829Z,19.40
2022-09-01T08:59:46.475Z,19.50
2022-09-01T09:02:31.662Z,19.60
2022-09-01T09:04:58.641Z,19.60
2022-09-01T09:07:25.385Z,19.70
2022-09-01T09:09:54.262Z,19.70
2022-09-01T09:12:21.154Z,19.70
2022-09-01T09:14:47.868Z,19.70
2022-09-01T09:17:14.649Z,19.70
2022-09-01T09:19:41.507Z,19.70
2022-09-01T09:22:11.305Z,19.70
2022-09-01T09:24:47.510Z,19.70
2022-09-01T09:27:16.395Z,19.60
2022-09-01T09:29:45.453Z,19.60
2022-09-01T09:34:59.680Z,19.60
2022-09-01T09:37:26.489Z,19.60
2022-09-01T09:39:53.171Z,19.70
2022-09-01T09:42:21.142Z,19.70
2022-09-01T09:44:48.987Z,19.80
2022-09-01T09:47:40.230Z,19.80
2022-09-01T09:50:05.405Z,19.90
2022-09-01T09:52:33.611Z,20.00
2022-09-01T09:55:00.854Z,20.00
2022-09-01T09:57:28.657Z,20.00
2022-09-01T10:00:01.129Z,20.10
2022-09-01T10:02:29.404Z,20.00
2022-09-01T10:04:57.144Z,20.00
2022-09-01T10:07:23.892Z,20.00
2022-09-01T10:09:51.075Z,19.90
2022-09-01T10:12:18.036Z,19.90
2022-09-01T10:14:52.371Z,19.90
2022-09-01T10:17:20.453Z,19.80
2022-09-01T10:19:47.744Z,19.70
2022-09-01T10:22:15.202Z,19.60
2022-09-01T10:24:45.885Z,19.60
2022-09-01T10:27:14.816Z,19.50
2022-09-01T10:29:49.614Z,19.60
2022-09-01T10:32:31.859Z,19.50
2022-09-01T10:35:04.635Z,19.60
2022-09-01T10:37:31.927Z,19.60
2022-09-01T10:39:58.664Z,19.60
2022-09-01T10:42:25.397Z,19.60
2022-09-01T10:44:52.535Z,19.60
2022-09-01T10:47:19.653Z,19.60
2022-09-01T10:49:47.210Z,19.70
2022-09-01T10:52:16.194Z,19.70
2022-09-01T10:54:58.273Z,19.80
2022-09-01T10:57:27.053Z,19.80
2022-09-01T10:59:58.273Z,19.90
2022-09-01T11:02:27.723Z,19.90
2022-09-01T11:04:55.135Z,20.00
2022-09-01T11:07:38.954Z,20.00
2022-09-01T11:10:11.767Z,20.00
2022-09-01T11:12:38.939Z,20.10
2022-09-01T11:15:08.791Z,20.10
2022-09-01T11:17:36.566Z,20.10
2022-09-01T11:20:06.519Z,20.10
2022-09-01T11:22:33.256Z,20.20
2022-09-01T11:25:02.528Z,20.20
2022-09-01T11:27:38.903Z,20.20
2022-09-01T11:30:05.717Z,20.20
2022-09-01T11:32:32.428Z,20.20
2022-09-01T11:34:59.204Z,20.30
2022-09-01T11:37:27.835Z,20.30
2022-09-01T11:39:54.721Z,20.30
2022-09-01T11:42:21.467Z,20.30
2022-09-01T11:44:48.234Z,20.30
2022-09-01T11:47:17.123Z,20.30
2022-09-01T11:49:43.828Z,20.30
2022-09-01T11:52:10.573Z,20.40
2022-09-01T11:54:38.153Z,20.50
2022-09-01T11:57:05.032Z,20.50
2022-09-01T11:59:31.827Z,20.70
2022-09-01T12:01:58.785Z,20.70
2022-09-01T12:04:26.339Z,20.90
2022-09-01T12:06:53.158Z,21.00
2022-09-01T12:09:19.860Z,21.20
2022-09-01T12:11:46.601Z,21.40
2022-09-01T12:14:13.631Z,21.60
2022-09-01T12:16:42.091Z,21.80
2022-09-01T12:19:11.907Z,21.90
2022-09-01T12:21:40.537Z,22.10
2022-09-01T12:24:07.313Z,22.20
2022-09-01T12:26:34.010Z,22.40
2022-09-01T12:29:01.812Z,22.60
2022-09-01T12:31:28.603Z,22.80
2022-09-01T12:33:55.391Z,22.90
2022-09-01T12:36:22.227Z,22.90
2022-09-01T12:38:49.012Z,23.00
2022-09-01T12:41:16.279Z,23.10
2022-09-01T12:43:44.118Z,23.10
2022-09-01T12:46:12.492Z,23.20
2022-09-01T12:48:39.358Z,23.20
2022-09-01T12:51:06.067Z,23.30
2022-09-01T12:53:36.508Z,23.50
2022-09-01T12:56:03.683Z,23.60
2022-09-01T12:58:30.423Z,23.70
2022-09-01T13:00:57.747Z,23.70
2022-09-01T13:03:25.938Z,23.80
2022-09-01T13:05:52.714Z,23.90
2022-09-01T13:08:19.530Z,24.00
2022-09-01T13:10:46.237Z,24.10
2022-09-01T13:13:13.011Z,24.00
2022-09-01T13:15:40.169Z,24.10
2022-09-01T13:18:06.861Z,24.20
2022-09-01T13:20:33.584Z,24.30
2022-09-01T13:23:00.373Z,24.20
2022-09-01T13:25:27.235Z,24.20
2022-09-01T13:27:54.941Z,24.20
2022-09-01T13:30:21.758Z,24.20
2022-09-01T13:35:35.656Z,24.20
2022-09-01T13:38:02.628Z,24.20
2022-09-01T13:40:29.343Z,24.10
2022-09-01T13:42:56.148Z,24.10
2022-09-01T13:45:24.975Z,24.10
2022-09-01T13:53:28.434Z,24.00
2022-09-01T13:55:55.168Z,24.00
2022-09-01T13:58:21.941Z,24.00
2022-09-01T14:00:48.712Z,24.00
2022-09-01T14:03:15.495Z,24.00
2022-09-01T14:05:42.249Z,24.00
2022-09-01T14:08:10.121Z,24.00
2022-09-01T14:10:37.407Z,24.00
2022-09-01T14:13:04.286Z,23.90
2022-09-01T14:15:31.000Z,24.00
2022-09-01T14:17:57.977Z,24.00
2022-09-01T14:20:24.666Z,24.10
2022-09-01T14:22:51.570Z,24.10
2022-09-01T14:25:18.295Z,24.20
2022-09-01T14:27:45.056Z,24.20
2022-09-01T14:30:11.805Z,24.30
2022-09-01T14:32:39.308Z,24.20
2022-09-01T14:35:08.220Z,24.30
2022-09-01T14:37:34.999Z,24.30
2022-09-01T14:40:01.712Z,24.30
2022-09-01T14:42:29.156Z,24.20
2022-09-01T14:44:56.048Z,24.20
2022-09-01T14:47:25.035Z,24.20
2022-09-01T14:49:51.844Z,24.20
2022-09-01T14:52:18.711Z,24.10
2022-09-01T14:54:45.423Z,24.10
2022-09-01T14:57:29.463Z,24.10
2022-09-01T14:59:58.483Z,24.20
2022-09-01T15:02:25.432Z,24.30
2022-09-01T15:04:52.201Z,24.30
2022-09-01T15:07:18.999Z,24.30
2022-09-01T15:09:45.722Z,24.20
2022-09-01T15:12:12.430Z,24.00
2022-09-01T15:14:39.127Z,23.90
2022-09-01T15:17:07.110Z,23.90
2022-09-01T15:19:33.820Z,23.80
2022-09-01T15:22:00.980Z,23.90
2022-09-01T15:24:27.717Z,23.80
2022-09-01T15:26:55.043Z,23.80
2022-09-01T15:29:21.757Z,23.90
2022-09-01T15:31:48.505Z,23.90
2022-09-01T15:34:17.148Z,24.00
2022-09-01T15:36:45.422Z,23.90
2022-09-01T15:39:12.155Z,23.90
2022-09-01T15:41:38.905Z,23.80
2022-09-01T15:44:06.093Z,23.80
2022-09-01T15:46:33.743Z,23.70
2022-09-01T15:49:00.572Z,23.70
2022-09-01T15:51:30.171Z,23.80
2022-09-01T15:53:57.315Z,23.80
2022-09-01T15:56:24.040Z,23.90
2022-09-01T15:59:01.059Z,23.90
2022-09-01T16:01:28.236Z,23.80
2022-09-01T16:03:55.033Z,23.70
2022-09-01T16:06:21.731Z,23.60
2022-09-01T16:08:48.485Z,23.50
2022-09-01T16:11:15.287Z,23.60
2022-09-01T16:13:41.989Z,23.60
2022-09-01T16:16:08.767Z,23.60
2022-09-01T16:18:35.623Z,23.60
2022-09-01T16:21:02.309Z,23.60
2022-09-01T16:23:29.811Z,23.60
2022-09-01T16:25:56.542Z,23.60
2022-09-01T16:28:23.257Z,23.50
2022-09-01T16:30:49.977Z,23.60
2022-09-01T16:33:22.578Z,23.70
2022-09-01T16:35:49.324Z,23.80
2022-09-01T16:38:16.076Z,23.80
2022-09-01T16:40:42.932Z,23.70
2022-09-01T16:43:09.720Z,23.50
2022-09-01T16:45:40.885Z,23.30
2022-09-01T16:48:09.581Z,23.20
2022-09-01T16:50:36.268Z,23.10
2022-09-01T16:53:03.030Z,23.00
2022-09-01T16:55:29.829Z,23.00
2022-09-01T16:57:59.336Z,23.00
2022-09-01T17:00:28.769Z,22.90
2022-09-01T17:02:56.622Z,23.00
2022-09-01T17:05:24.539Z,23.10
2022-09-01T17:07:51.376Z,23.20
2022-09-01T17:10:19.202Z,23.20
2022-09-01T17:12:51.106Z,23.20
2022-09-01T17:15:18.257Z,23.20
2022-09-01T17:17:45.025Z,23.20
2022-09-01T17:20:13.046Z,23.20
2022-09-01T17:22:39.829Z,23.20
2022-09-01T17:25:07.788Z,23.30
2022-09-01T17:27:34.898Z,23.30
2022-09-01T17:30:01.614Z,23.30
2022-09-01T17:32:30.963Z,23.20
2022-09-01T17:34:57.812Z,23.20
2022-09-01T17:37:26.426Z,23.20
2022-09-01T17:39:55.966Z,23.10
2022-09-01T17:42:22.794Z,23.00
2022-09-01T17:44:50.970Z,22.90
2022-09-01T17:47:17.736Z,22.90
2022-09-01T17:49:44.901Z,22.80
2022-09-01T17:52:11.772Z,22.70
2022-09-01T17:54:38.501Z,22.60
2022-09-01T17:57:05.512Z,22.60
2022-09-01T17:59:37.699Z,22.50
2022-09-01T18:02:04.443Z,22.50
2022-09-01T18:04:31.199Z,22.50
2022-09-01T18:06:57.882Z,22.50
2022-09-01T18:09:24.604Z,22.40
2022-09-01T18:11:51.469Z,22.30
2022-09-01T18:14:18.146Z,22.20
2022-09-01T18:16:44.956Z,22.10
2022-09-01T18:19:11.664Z,22.10
2022-09-01T18:21:39.397Z,22.00
2022-09-01T18:24:06.132Z,21.90
2022-09-01T18:26:33.010Z,21.90
2022-09-01T18:28:59.824Z,21.80
2022-09-01T18:31:26.730Z,21.80
2022-09-01T18:33:53.507Z,21.70
2022-09-01T18:36:20.278Z,21.70
2022-09-01T18:38:46.969Z,21.60
2022-09-01T18:41:13.756Z,21.50
2022-09-01T18:43:40.773Z,21.50
2022-09-01T18:46:07.463Z,21.40
2022-09-01T18:51:06.301Z,21.30
2022-09-01T18:53:33.729Z,21.30
2022-09-01T18:56:00.397Z,21.20
2022-09-01T18:58:27.128Z,21.10
2022-09-01T19:00:54.664Z,21.10
2022-09-01T19:03:21.559Z,21.10
2022-09-01T19:05:48.452Z,21.10
2022-09-01T19:08:15.171Z,21.00
2022-09-01T19:10:41.911Z,21.00
2022-09-01T19:13:09.818Z,20.90
2022-09-01T19:15:36.573Z,20.90
2022-09-01T19:18:04.219Z,20.80
2022-09-01T19:20:30.913Z,20.70
2022-09-01T19:22:57.657Z,20.70
2022-09-01T19:25:36.922Z,20.60
2022-09-01T19:28:03.889Z,20.50
2022-09-01T19:30:35.371Z,20.50
2022-09-01T19:33:02.966Z,20.50
2022-09-01T19:35:30.330Z,20.40
2022-09-01T19:37:57.059Z,20.40
2022-09-01T19:40:25.064Z,20.40
2022-09-01T19:42:52.282Z,20.40
2022-09-01T19:45:18.995Z,20.40
2022-09-01T19:47:45.765Z,20.30
2022-09-01T19:50:12.488Z,20.20
2022-09-01T19:52:39.323Z,20.20
2022-09-01T19:55:06.040Z,20.20
2022-09-01T19:57:32.781Z,20.20
2022-09-01T19:59:59.508Z,20.20
2022-09-01T20:02:26.253Z,20.20
2022-09-01T20:04:54.710Z,20.20
2022-09-01T20:07:23.949Z,20.20
2022-09-01T20:09:55.586Z,20.20
2022-09-01T20:12:22.337Z,20.20
2022-09-01T20:14:49.338Z,20.20
2022-09-01T20:17:16.077Z,20.10
2022-09-01T20:19:42.812Z,20.10
2022-09-01T20:22:09.551Z,20.00
2022-09-01T20:24:38.207Z,20.10
2022-09-01T20:27:04.955Z,20.00
2022-09-01T20:29:32.471Z,19.90
2022-09-01T20:31:59.266Z,19.90
2022-09-01T20:34:25.984Z,19.90
2022-09-01T20:36:52.691Z,19.90
2022-09-01T20:39:38.290Z,20.00
2022-09-01T20:42:05.027Z,20.00
2022-09-01T20:44:32.295Z,20.00
2022-09-01T20:46:59.111Z,20.10
2022-09-01T20:49:25.835Z,20.10
2022-09-01T20:51:52.559Z,20.20
2022-09-01T20:54:19.284Z,20.10
2022-09-01T20:56:46.086Z,20.10
2022-09-01T20:59:12.846Z,20.20
2022-09-01T21:01:39.641Z,20.10
2022-09-01T21:04:08.196Z,20.10
2022-09-01T21:06:34.922Z,20.10
2022-09-01T21:09:01.725Z,20.20
2022-09-01T21:11:28.387Z,20.10
2022-09-01T21:13:55.318Z,20.10
2022-09-01T21:16:22.068Z,20.10
2022-09-01T21:18:48.856Z,20.10
2022-09-01T21:21:15.569Z,20.00
2022-09-01T21:23:42.255Z,20.00
2022-09-01T21:26:09.076Z,20.00
2022-09-01T21:28:38.850Z,19.90
2022-09-01T21:31:05.902Z,19.90
2022-09-01T21:33:32.710Z,19.80
2022-09-01T21:35:59.433Z,19.70
2022-09-01T21:38:26.176Z,19.70
2022-09-01T21:40:53.474Z,19.60
2022-09-01T21:43:20.269Z,19.60
2022-09-01T21:45:47.139Z,19.50
2022-09-01T21:48:14.024Z,19.40
2022-09-01T21:50:40.744Z,19.40
2022-09-01T21:53:07.485Z,19.40
2022-09-01T21:55:34.188Z,19.30
2022-09-01T21:58:00.923Z,19.30
2022-09-01T22:00:27.669Z,19.30
2022-09-01T22:02:54.472Z,19.20
2022-09-01T22:05:21.207Z,19.20
2022-09-01T22:07:47.926Z,19.10
2022-09-01T22:10:14.624Z,19.10
2022-09-01T22:12:41.345Z,19.10
2022-09-01T22:15:08.062Z,19.00
2022-09-01T22:17:34.759Z,19.00
2022-09-01T22:20:01.448Z,18.90
2022-09-01T22:22:28.159Z,18.80
2022-09-01T22:24:54.880Z,18.70
2022-09-01T22:27:21.620Z,18.70
2022-09-01T22:29:48.434Z,18.60
2022-09-01T22:32:15.166Z,18.50
2022-09-01T22:34:43.683Z,18.40
2022-09-01T22:37:10.461Z,18.40
2022-09-01T22:39:37.144Z,18.40
2022-09-01T22:42:03.905Z,18.40
2022-09-01T22:44:30.604Z,18.50
2022-09-01T22:46:57.633Z,18.50
2022-09-01T22:49:24.359Z,18.50
2022-09-01T22:51:51.057Z,18.50
2022-09-01T22:54:18.295Z,18.50
2022-09-01T22:56:45.265Z,18.50
2022-09-01T22:59:12.065Z,18.40
2022-09-01T23:01:38.884Z,18.40
2022-09-01T23:04:05.687Z,18.30
2022-09-01T23:06:32.400Z,18.40
2022-09-01T23:08:59.123Z,18.30
2022-09-01T23:11:25.868Z,18.30
2022-09-01T23:13:52.655Z,18.30
2022-09-01T23:16:19.449Z,18.20
2022-09-01T23:18:46.239Z,18.20
2022-09-01T23:21:12.984Z,18.20
2022-09-01T23:23:39.670Z,18.20
2022-09-01T23:26:07.108Z,18.20
2022-09-01T23:28:34.053Z,18.20
2022-09-01T23:31:00.727Z,18.30
2022-09-01T23:33:27.496Z,18.30
2022-09-01T23:35:54.246Z,18.30
2022-09-01T23:38:20.986Z,18.30
2022-09-01T23:40:47.811Z,18.30
2022-09-01T23:43:14.588Z,18.30
2022-09-01T23:45:41.402Z,18.30
2022-09-01T23:48:08.204Z,18.20
2022-09-01T23:50:36.030Z,18.20
2022-09-01T23:53:02.794Z,18.10
2022-09-01T23:55:29.517Z,18.10
2022-09-01T23:57:56.252Z,18.10
